Main page
METAR-TAF:

METAR-TAF

Airports :

Balikesir, Turkey

Balıkesir Airport

latitude: 39-37N, longitude: 027-55E, elevation: 101 m

Current weather observation

The report was made 1 hour and 8 minutes ago, at 08:50 UTC
Wind 15 kt from the North/Northeast, varying between North and Northeast
Temperature 18°C
Humidity 56%
Pressure 1021 hPa
Visibility 10 km or more
no clouds below 1500 m and no cumulonimbus

METAR: LTBF 190850Z 02015KT 350V050 CAVOK 18/09 Q1021 NOSIG

Time: 12:58 (09:58 UTC)

Forecast

The report was made 2 hours and 18 minutes ago, at 07:40 UTC
Forecast valid from 19 at 09 UTC to 19 at 18 UTC
Wind 12 kt from the North
Visibility 10 km or more
no clouds below 1500 m and no cumulonimbus

TAF: LTBF 190740Z 1909/1918 01012KT CAVOK

Weather observations and forecasts of more than 4000 airports (METAR and TAF reports).

The available stations are represented by yellow and red dots on the map.

Hover mouse over dot to see the name of the station.

Then click to see weather observations and forecasts.

To change the map : click on the green buttons with a black cross to zoom in, on the green button with a dash to zoom out, or on the green arrows for adjacent maps.


METAR-TAF: